sensor_id;sensor_type;location;lat;lon;timestamp;pressure;altitude;pressure_sealevel;temperature;humidity
70971;BME280;58632;51.718;19.446;2023-11-21T00:02:21;98696.30;;;6.58;100.00
70971;BME280;58632;51.718;19.446;2023-11-21T00:04:47;98700.86;;;6.54;100.00
70971;BME280;58632;51.718;19.446;2023-11-21T00:07:13;98702.29;;;6.53;100.00
70971;BME280;58632;51.718;19.446;2023-11-21T00:09:40;98703.05;;;6.54;100.00
70971;BME280;58632;51.718;19.446;2023-11-21T00:12:06;98707.42;;;6.55;100.00
70971;BME280;58632;51.718;19.446;2023-11-21T00:14:38;98708.70;;;6.52;100.00
70971;BME280;58632;51.718;19.446;2023-11-21T00:17:04;98712.05;;;6.49;100.00
70971;BME280;58632;51.718;19.446;2023-11-21T00:19:32;98715.67;;;6.45;100.00
70971;BME280;58632;51.718;19.446;2023-11-21T00:22:01;98720.16;;;6.43;100.00
70971;BME280;58632;51.718;19.446;2023-11-21T00:24:29;98721.54;;;6.41;100.00
70971;BME280;58632;51.718;19.446;2023-11-21T00:26:56;98724.66;;;6.36;100.00
70971;BME280;58632;51.718;19.446;2023-11-21T00:29:22;98726.08;;;6.32;100.00
70971;BME280;58632;51.718;19.446;2023-11-21T00:31:50;98728.58;;;6.29;100.00
70971;BME280;58632;51.718;19.446;2023-11-21T00:34:15;98726.98;;;6.26;100.00
70971;BME280;58632;51.718;19.446;2023-11-21T00:36:41;98727.92;;;6.29;100.00
70971;BME280;58632;51.718;19.446;2023-11-21T00:39:07;98729.91;;;6.31;100.00
70971;BME280;58632;51.718;19.446;2023-11-21T00:41:32;98740.09;;;6.31;100.00
70971;BME280;58632;51.718;19.446;2023-11-21T00:43:58;98741.05;;;6.33;100.00
70971;BME280;58632;51.718;19.446;2023-11-21T00:46:24;98742.52;;;6.32;100.00
70971;BME280;58632;51.718;19.446;2023-11-21T00:48:52;98743.41;;;6.31;100.00
70971;BME280;58632;51.718;19.446;2023-11-21T00:51:19;98743.45;;;6.26;100.00
70971;BME280;58632;51.718;19.446;2023-11-21T00:53:44;98741.90;;;6.23;100.00
70971;BME280;58632;51.718;19.446;2023-11-21T00:56:10;98745.70;;;6.18;100.00
70971;BME280;58632;51.718;19.446;2023-11-21T00:58:35;98746.42;;;6.10;100.00
70971;BME280;58632;51.718;19.446;2023-11-21T01:01:01;98746.04;;;6.05;100.00
70971;BME280;58632;51.718;19.446;2023-11-21T01:03:27;98749.23;;;6.04;100.00
70971;BME280;58632;51.718;19.446;2023-11-21T01:05:55;98745.08;;;6.05;100.00
70971;BME280;58632;51.718;19.446;2023-11-21T01:08:21;98743.31;;;6.04;100.00
70971;BME280;58632;51.718;19.446;2023-11-21T01:10:46;98744.69;;;6.00;100.00
70971;BME280;58632;51.718;19.446;2023-11-21T01:13:12;98748.77;;;5.96;100.00
70971;BME280;58632;51.718;19.446;2023-11-21T01:15:40;98750.40;;;5.93;100.00
70971;BME280;58632;51.718;19.446;2023-11-21T01:18:05;98753.48;;;5.89;100.00
70971;BME280;58632;51.718;19.446;2023-11-21T01:20:31;98754.49;;;5.82;100.00
70971;BME280;58632;51.718;19.446;2023-11-21T01:22:56;98752.05;;;5.75;100.00
70971;BME280;58632;51.718;19.446;2023-11-21T01:25:22;98752.52;;;5.72;100.00
70971;BME280;58632;51.718;19.446;2023-11-21T01:27:47;98758.16;;;5.71;100.00
70971;BME280;58632;51.718;19.446;2023-11-21T01:30:13;98755.71;;;5.66;100.00
70971;BME280;58632;51.718;19.446;2023-11-21T01:32:38;98758.83;;;5.61;100.00
70971;BME280;58632;51.718;19.446;2023-11-21T01:35:04;98755.00;;;5.54;100.00
70971;BME280;58632;51.718;19.446;2023-11-21T01:37:31;98758.46;;;5.49;100.00
70971;BME280;58632;51.718;19.446;2023-11-21T01:39:56;98761.48;;;5.47;100.00
70971;BME280;58632;51.718;19.446;2023-11-21T01:42:22;98762.94;;;5.44;100.00
70971;BME280;58632;51.718;19.446;2023-11-21T01:44:48;98765.75;;;5.42;100.00
70971;BME280;58632;51.718;19.446;2023-11-21T01:47:14;98766.69;;;5.44;100.00
70971;BME280;58632;51.718;19.446;2023-11-21T01:49:43;98764.58;;;5.44;100.00
70971;BME280;58632;51.718;19.446;2023-11-21T01:52:10;98766.70;;;5.44;100.00
70971;BME280;58632;51.718;19.446;2023-11-21T01:54:39;98770.74;;;5.45;100.00
70971;BME280;58632;51.718;19.446;2023-11-21T01:57:05;98774.20;;;5.44;100.00
70971;BME280;58632;51.718;19.446;2023-11-21T01:59:35;98773.27;;;5.41;100.00
70971;BME280;58632;51.718;19.446;2023-11-21T02:02:02;98774.51;;;5.42;100.00
70971;BME280;58632;51.718;19.446;2023-11-21T02:04:30;98776.38;;;5.45;100.00
70971;BME280;58632;51.718;19.446;2023-11-21T02:06:56;98780.90;;;5.44;100.00
70971;BME280;58632;51.718;19.446;2023-11-21T02:09:25;98782.33;;;5.42;100.00
70971;BME280;58632;51.718;19.446;2023-11-21T02:11:52;98781.42;;;5.39;100.00
70971;BME280;58632;51.718;19.446;2023-11-21T02:14:19;98778.48;;;5.41;100.00
70971;BME280;58632;51.718;19.446;2023-11-21T02:16:50;98776.05;;;5.43;100.00
70971;BME280;58632;51.718;19.446;2023-11-21T02:19:20;98779.74;;;5.46;100.00
70971;BME280;58632;51.718;19.446;2023-11-21T02:21:53;98780.94;;;5.47;100.00
70971;BME280;58632;51.718;19.446;2023-11-21T02:24:23;98781.73;;;5.47;100.00
70971;BME280;58632;51.718;19.446;2023-11-21T02:26:49;98781.70;;;5.49;100.00
70971;BME280;58632;51.718;19.446;2023-11-21T02:29:20;98779.62;;;5.44;100.00
70971;BME280;58632;51.718;19.446;2023-11-21T02:31:53;98780.42;;;5.38;100.00
70971;BME280;58632;51.718;19.446;2023-11-21T02:34:20;98781.21;;;5.35;100.00
70971;BME280;58632;51.718;19.446;2023-11-21T02:36:48;98787.43;;;5.34;100.00
70971;BME280;58632;51.718;19.446;2023-11-21T02:39:19;98787.29;;;5.33;100.00
70971;BME280;58632;51.718;19.446;2023-11-21T02:41:47;98783.64;;;5.31;100.00
70971;BME280;58632;51.718;19.446;2023-11-21T02:44:13;98785.39;;;5.30;100.00
70971;BME280;58632;51.718;19.446;2023-11-21T02:46:38;98785.59;;;5.31;100.00
70971;BME280;58632;51.718;19.446;2023-11-21T02:49:04;98784.55;;;5.32;100.00
70971;BME280;58632;51.718;19.446;2023-11-21T02:51:31;98791.06;;;5.34;100.00
70971;BME280;58632;51.718;19.446;2023-11-21T02:53:57;98794.77;;;5.39;100.00
70971;BME280;58632;51.718;19.446;2023-11-21T02:56:28;98798.63;;;5.44;100.00
70971;BME280;58632;51.718;19.446;2023-11-21T02:58:57;98795.63;;;5.48;100.00
70971;BME280;58632;51.718;19.446;2023-11-21T03:01:23;98794.10;;;5.44;100.00
70971;BME280;58632;51.718;19.446;2023-11-21T03:03:51;98797.39;;;5.39;100.00
70971;BME280;58632;51.718;19.446;2023-11-21T03:06:17;98799.95;;;5.36;100.00
70971;BME280;58632;51.718;19.446;2023-11-21T03:08:43;98804.30;;;5.36;100.00
70971;BME280;58632;51.718;19.446;2023-11-21T03:11:11;98800.61;;;5.32;100.00
70971;BME280;58632;51.718;19.446;2023-11-21T03:13:38;98802.42;;;5.20;100.00
70971;BME280;58632;51.718;19.446;2023-11-21T03:16:04;98808.38;;;5.11;100.00
70971;BME280;58632;51.718;19.446;2023-11-21T03:18:29;98809.45;;;5.06;100.00
70971;BME280;58632;51.718;19.446;2023-11-21T03:20:55;98815.02;;;5.03;100.00
70971;BME280;58632;51.718;19.446;2023-11-21T03:23:20;98814.85;;;4.98;100.00
70971;BME280;58632;51.718;19.446;2023-11-21T03:25:46;98812.09;;;4.96;100.00
70971;BME280;58632;51.718;19.446;2023-11-21T03:28:11;98816.67;;;4.97;100.00
70971;BME280;58632;51.718;19.446;2023-11-21T03:30:37;98820.80;;;4.99;100.00
70971;BME280;58632;51.718;19.446;2023-11-21T03:33:02;98825.70;;;5.01;100.00
70971;BME280;58632;51.718;19.446;2023-11-21T03:35:27;98826.86;;;5.04;100.00
70971;BME280;58632;51.718;19.446;2023-11-21T03:37:53;98830.53;;;5.07;100.00
70971;BME280;58632;51.718;19.446;2023-11-21T03:40:21;98824.59;;;5.08;100.00
70971;BME280;58632;51.718;19.446;2023-11-21T03:42:47;98829.07;;;5.05;100.00
70971;BME280;58632;51.718;19.446;2023-11-21T03:45:12;98831.66;;;4.97;100.00
70971;BME280;58632;51.718;19.446;2023-11-21T03:47:40;98831.96;;;4.91;100.00
70971;BME280;58632;51.718;19.446;2023-11-21T03:50:06;98831.75;;;4.93;100.00
70971;BME280;58632;51.718;19.446;2023-11-21T03:52:34;98833.02;;;4.97;100.00
70971;BME280;58632;51.718;19.446;2023-11-21T03:55:00;98834.70;;;5.01;100.00
70971;BME280;58632;51.718;19.446;2023-11-21T03:57:28;98832.09;;;5.02;100.00
70971;BME280;58632;51.718;19.446;2023-11-21T03:59:54;98831.80;;;4.98;100.00
70971;BME280;58632;51.718;19.446;2023-11-21T04:02:22;98832.88;;;4.93;100.00
70971;BME280;58632;51.718;19.446;2023-11-21T04:04:47;98833.42;;;4.88;100.00
70971;BME280;58632;51.718;19.446;2023-11-21T04:07:12;98839.00;;;4.82;100.00
70971;BME280;58632;51.718;19.446;2023-11-21T04:09:39;98844.34;;;4.77;100.00
70971;BME280;58632;51.718;19.446;2023-11-21T04:12:04;98847.48;;;4.76;100.00
70971;BME280;58632;51.718;19.446;2023-11-21T04:14:30;98849.16;;;4.74;100.00
70971;BME280;58632;51.718;19.446;2023-11-21T04:16:55;98852.10;;;4.74;100.00
70971;BME280;58632;51.718;19.446;2023-11-21T04:19:21;98848.59;;;4.78;100.00
70971;BME280;58632;51.718;19.446;2023-11-21T04:21:46;98853.96;;;4.83;100.00
70971;BME280;58632;51.718;19.446;2023-11-21T04:24:12;98853.47;;;4.81;100.00
70971;BME280;58632;51.718;19.446;2023-11-21T04:26:38;98852.89;;;4.80;100.00
70971;BME280;58632;51.718;19.446;2023-11-21T04:29:03;98854.83;;;4.80;100.00
70971;BME280;58632;51.718;19.446;2023-11-21T04:31:31;98857.75;;;4.82;100.00
70971;BME280;58632;51.718;19.446;2023-11-21T04:33:57;98857.23;;;4.81;100.00
70971;BME280;58632;51.718;19.446;2023-11-21T04:36:22;98856.86;;;4.81;100.00
70971;BME280;58632;51.718;19.446;2023-11-21T04:38:48;98859.13;;;4.82;100.00
70971;BME280;58632;51.718;19.446;2023-11-21T04:41:13;98862.66;;;4.79;100.00
70971;BME280;58632;51.718;19.446;2023-11-21T04:43:39;98865.05;;;4.80;100.00
70971;BME280;58632;51.718;19.446;2023-11-21T04:46:04;98870.46;;;4.82;100.00
70971;BME280;58632;51.718;19.446;2023-11-21T04:48:32;98868.18;;;4.85;100.00
70971;BME280;58632;51.718;19.446;2023-11-21T04:50:58;98871.27;;;4.83;100.00
70971;BME280;58632;51.718;19.446;2023-11-21T04:53:23;98878.05;;;4.78;100.00
70971;BME280;58632;51.718;19.446;2023-11-21T04:55:49;98883.40;;;4.71;100.00
70971;BME280;58632;51.718;19.446;2023-11-21T04:58:14;98889.73;;;4.64;100.00
70971;BME280;58632;51.718;19.446;2023-11-21T05:00:40;98893.52;;;4.60;100.00
70971;BME280;58632;51.718;19.446;2023-11-21T05:03:06;98892.59;;;4.57;100.00
70971;BME280;58632;51.718;19.446;2023-11-21T05:05:32;98890.88;;;4.52;100.00
70971;BME280;58632;51.718;19.446;2023-11-21T05:07:59;98888.15;;;4.47;100.00
70971;BME280;58632;51.718;19.446;2023-11-21T05:10:24;98886.79;;;4.42;100.00
70971;BME280;58632;51.718;19.446;2023-11-21T05:12:50;98883.18;;;4.41;100.00
70971;BME280;58632;51.718;19.446;2023-11-21T05:15:16;98887.04;;;4.38;100.00
70971;BME280;58632;51.718;19.446;2023-11-21T05:17:42;98886.94;;;4.32;100.00
70971;BME280;58632;51.718;19.446;2023-11-21T05:20:12;98888.77;;;4.26;100.00
70971;BME280;58632;51.718;19.446;2023-11-21T05:22:39;98890.86;;;4.19;100.00
70971;BME280;58632;51.718;19.446;2023-11-21T05:25:05;98892.30;;;4.13;100.00
70971;BME280;58632;51.718;19.446;2023-11-21T05:27:32;98893.17;;;4.12;100.00
70971;BME280;58632;51.718;19.446;2023-11-21T05:29:58;98893.93;;;4.07;100.00
70971;BME280;58632;51.718;19.446;2023-11-21T05:32:24;98893.59;;;4.06;100.00
70971;BME280;58632;51.718;19.446;2023-11-21T05:34:50;98896.38;;;4.01;100.00
70971;BME280;58632;51.718;19.446;2023-11-21T05:37:15;98901.31;;;3.98;100.00
70971;BME280;58632;51.718;19.446;2023-11-21T05:39:42;98907.45;;;3.95;100.00
70971;BME280;58632;51.718;19.446;2023-11-21T05:42:14;98909.91;;;3.93;100.00
70971;BME280;58632;51.718;19.446;2023-11-21T05:44:41;98911.78;;;3.88;100.00
70971;BME280;58632;51.718;19.446;2023-11-21T05:47:06;98911.11;;;3.84;100.00
70971;BME280;58632;51.718;19.446;2023-11-21T05:49:34;98919.23;;;3.81;100.00
70971;BME280;58632;51.718;19.446;2023-11-21T05:52:02;98926.07;;;3.77;100.00
70971;BME280;58632;51.718;19.446;2023-11-21T05:54:28;98922.55;;;3.71;100.00
70971;BME280;58632;51.718;19.446;2023-11-21T05:56:53;98920.73;;;3.66;100.00
70971;BME280;58632;51.718;19.446;2023-11-21T05:59:19;98919.65;;;3.69;100.00
70971;BME280;58632;51.718;19.446;2023-11-21T06:01:45;98924.30;;;3.69;100.00
70971;BME280;58632;51.718;19.446;2023-11-21T06:04:11;98931.00;;;3.67;100.00
70971;BME280;58632;51.718;19.446;2023-11-21T06:06:38;98936.10;;;3.60;100.00
70971;BME280;58632;51.718;19.446;2023-11-21T06:09:04;98934.45;;;3.56;100.00
70971;BME280;58632;51.718;19.446;2023-11-21T06:11:31;98935.02;;;3.50;100.00
70971;BME280;58632;51.718;19.446;2023-11-21T06:13:56;98940.60;;;3.47;100.00
70971;BME280;58632;51.718;19.446;2023-11-21T06:16:23;98946.63;;;3.45;100.00
70971;BME280;58632;51.718;19.446;2023-11-21T06:18:48;98947.95;;;3.44;100.00
70971;BME280;58632;51.718;19.446;2023-11-21T06:21:14;98953.01;;;3.43;100.00
70971;BME280;58632;51.718;19.446;2023-11-21T06:23:42;98955.32;;;3.40;100.00
70971;BME280;58632;51.718;19.446;2023-11-21T06:26:09;98957.56;;;3.39;100.00
70971;BME280;58632;51.718;19.446;2023-11-21T06:28:35;98959.45;;;3.38;100.00
70971;BME280;58632;51.718;19.446;2023-11-21T06:31:01;98959.63;;;3.38;100.00
70971;BME280;58632;51.718;19.446;2023-11-21T06:33:33;98962.19;;;3.37;100.00
70971;BME280;58632;51.718;19.446;2023-11-21T06:35:58;98965.98;;;3.32;100.00
70971;BME280;58632;51.718;19.446;2023-11-21T06:38:24;98969.70;;;3.30;100.00
70971;BME280;58632;51.718;19.446;2023-11-21T06:40:49;98975.34;;;3.26;100.00
70971;BME280;58632;51.718;19.446;2023-11-21T06:43:15;98980.08;;;3.20;100.00
70971;BME280;58632;51.718;19.446;2023-11-21T06:45:40;98986.60;;;3.14;100.00
70971;BME280;58632;51.718;19.446;2023-11-21T06:48:06;98985.79;;;3.06;100.00
70971;BME280;58632;51.718;19.446;2023-11-21T06:50:31;98985.27;;;3.02;100.00
70971;BME280;58632;51.718;19.446;2023-11-21T06:52:57;98986.72;;;2.98;100.00
70971;BME280;58632;51.718;19.446;2023-11-21T06:55:23;98993.84;;;2.90;100.00
70971;BME280;58632;51.718;19.446;2023-11-21T06:57:48;99001.80;;;2.91;100.00
70971;BME280;58632;51.718;19.446;2023-11-21T07:00:15;99010.72;;;2.91;100.00
70971;BME280;58632;51.718;19.446;2023-11-21T07:02:41;99012.73;;;2.85;100.00
70971;BME280;58632;51.718;19.446;2023-11-21T07:05:07;99016.84;;;2.85;100.00
70971;BME280;58632;51.718;19.446;2023-11-21T07:07:32;99021.23;;;2.84;100.00
70971;BME280;58632;51.718;19.446;2023-11-21T07:10:01;99022.92;;;2.82;100.00
70971;BME280;58632;51.718;19.446;2023-11-21T07:12:28;99027.17;;;2.80;100.00
70971;BME280;58632;51.718;19.446;2023-11-21T07:14:55;99030.95;;;2.78;100.00
70971;BME280;58632;51.718;19.446;2023-11-21T07:17:20;99038.42;;;2.77;100.00
70971;BME280;58632;51.718;19.446;2023-11-21T07:19:48;99038.58;;;2.77;100.00
70971;BME280;58632;51.718;19.446;2023-11-21T07:22:14;99042.15;;;2.77;100.00
70971;BME280;58632;51.718;19.446;2023-11-21T07:24:40;99043.27;;;2.73;100.00
70971;BME280;58632;51.718;19.446;2023-11-21T07:27:06;99045.39;;;2.72;100.00
70971;BME280;58632;51.718;19.446;2023-11-21T07:29:33;99043.66;;;2.72;100.00
70971;BME280;58632;51.718;19.446;2023-11-21T07:31:59;99044.31;;;2.67;100.00
70971;BME280;58632;51.718;19.446;2023-11-21T07:34:25;99038.09;;;2.62;100.00
70971;BME280;58632;51.718;19.446;2023-11-21T07:36:51;99039.90;;;2.60;100.00
70971;BME280;58632;51.718;19.446;2023-11-21T07:39:17;99045.89;;;2.62;100.00
70971;BME280;58632;51.718;19.446;2023-11-21T07:41:42;99051.06;;;2.63;100.00
70971;BME280;58632;51.718;19.446;2023-11-21T07:44:14;99056.10;;;2.66;100.00
70971;BME280;58632;51.718;19.446;2023-11-21T07:46:40;99058.43;;;2.62;100.00
70971;BME280;58632;51.718;19.446;2023-11-21T07:49:05;99055.73;;;2.58;100.00
70971;BME280;58632;51.718;19.446;2023-11-21T07:51:31;99055.04;;;2.54;100.00
70971;BME280;58632;51.718;19.446;2023-11-21T07:53:56;99058.45;;;2.54;100.00
70971;BME280;58632;51.718;19.446;2023-11-21T07:56:22;99061.34;;;2.52;100.00
70971;BME280;58632;51.718;19.446;2023-11-21T07:58:47;99058.05;;;2.52;100.00
70971;BME280;58632;51.718;19.446;2023-11-21T08:01:13;99061.33;;;2.53;100.00
70971;BME280;58632;51.718;19.446;2023-11-21T08:03:38;99066.69;;;2.52;100.00
70971;BME280;58632;51.718;19.446;2023-11-21T08:06:04;99065.20;;;2.50;100.00
70971;BME280;58632;51.718;19.446;2023-11-21T08:08:30;99069.70;;;2.49;100.00
70971;BME280;58632;51.718;19.446;2023-11-21T08:10:57;99071.16;;;2.43;100.00
70971;BME280;58632;51.718;19.446;2023-11-21T08:13:26;99076.02;;;2.40;100.00
70971;BME280;58632;51.718;19.446;2023-11-21T08:15:55;99081.02;;;2.35;100.00
70971;BME280;58632;51.718;19.446;2023-11-21T08:18:21;99080.94;;;2.30;100.00
70971;BME280;58632;51.718;19.446;2023-11-21T08:20:47;99079.69;;;2.27;100.00
70971;BME280;58632;51.718;19.446;2023-11-21T08:23:16;99075.09;;;2.27;100.00
70971;BME280;58632;51.718;19.446;2023-11-21T08:25:45;99071.23;;;2.26;100.00
70971;BME280;58632;51.718;19.446;2023-11-21T08:28:10;99074.15;;;2.25;100.00
70971;BME280;58632;51.718;19.446;2023-11-21T08:30:36;99074.70;;;2.24;100.00
70971;BME280;58632;51.718;19.446;2023-11-21T08:33:06;99076.55;;;2.21;100.00
70971;BME280;58632;51.718;19.446;2023-11-21T08:35:34;99081.59;;;2.21;100.00
70971;BME280;58632;51.718;19.446;2023-11-21T08:37:59;99088.90;;;2.23;100.00
70971;BME280;58632;51.718;19.446;2023-11-21T08:40:25;99089.55;;;2.24;100.00
70971;BME280;58632;51.718;19.446;2023-11-21T08:42:50;99093.60;;;2.25;100.00
70971;BME280;58632;51.718;19.446;2023-11-21T08:45:18;99099.11;;;2.25;100.00
70971;BME280;58632;51.718;19.446;2023-11-21T08:47:43;99102.19;;;2.23;100.00
70971;BME280;58632;51.718;19.446;2023-11-21T08:50:09;99108.70;;;2.22;100.00
70971;BME280;58632;51.718;19.446;2023-11-21T08:52:35;99112.63;;;2.17;100.00
70971;BME280;58632;51.718;19.446;2023-11-21T08:55:02;99113.82;;;2.16;100.00
70971;BME280;58632;51.718;19.446;2023-11-21T08:57:36;99117.40;;;2.16;100.00
70971;BME280;58632;51.718;19.446;2023-11-21T09:00:02;99115.95;;;2.13;100.00
70971;BME280;58632;51.718;19.446;2023-11-21T09:02:32;99124.23;;;2.10;100.00
70971;BME280;58632;51.718;19.446;2023-11-21T09:04:59;99125.83;;;2.07;100.00
70971;BME280;58632;51.718;19.446;2023-11-21T09:07:28;99126.73;;;2.02;100.00
70971;BME280;58632;51.718;19.446;2023-11-21T09:09:54;99128.25;;;2.00;100.00
70971;BME280;58632;51.718;19.446;2023-11-21T09:12:20;99127.41;;;2.00;100.00
70971;BME280;58632;51.718;19.446;2023-11-21T09:14:46;99129.29;;;2.01;100.00
70971;BME280;58632;51.718;19.446;2023-11-21T09:17:11;99131.48;;;2.03;100.00
70971;BME280;58632;51.718;19.446;2023-11-21T09:19:40;99126.02;;;2.06;100.00
70971;BME280;58632;51.718;19.446;2023-11-21T09:22:05;99128.73;;;2.07;100.00
70971;BME280;58632;51.718;19.446;2023-11-21T09:24:34;99132.31;;;2.07;100.00
70971;BME280;58632;51.718;19.446;2023-11-21T09:27:00;99139.46;;;2.05;100.00
70971;BME280;58632;51.718;19.446;2023-11-21T09:29:26;99138.80;;;2.05;100.00
70971;BME280;58632;51.718;19.446;2023-11-21T09:31:51;99134.40;;;2.02;100.00
70971;BME280;58632;51.718;19.446;2023-11-21T09:34:17;99138.02;;;2.01;100.00
70971;BME280;58632;51.718;19.446;2023-11-21T09:36:45;99138.83;;;2.04;100.00
70971;BME280;58632;51.718;19.446;2023-11-21T09:39:11;99140.31;;;2.06;100.00
70971;BME280;58632;51.718;19.446;2023-11-21T09:41:59;99137.52;;;2.10;100.00
70971;BME280;58632;51.718;19.446;2023-11-21T09:44:31;99138.73;;;2.15;100.00
70971;BME280;58632;51.718;19.446;2023-11-21T09:46:59;99138.30;;;2.15;100.00
70971;BME280;58632;51.718;19.446;2023-11-21T09:49:24;99135.83;;;2.13;100.00
70971;BME280;58632;51.718;19.446;2023-11-21T09:51:51;99135.77;;;2.13;100.00
70971;BME280;58632;51.718;19.446;2023-11-21T09:54:19;99139.66;;;2.13;100.00
70971;BME280;58632;51.718;19.446;2023-11-21T09:56:46;99143.02;;;2.11;100.00
70971;BME280;58632;51.718;19.446;2023-11-21T09:59:13;99137.86;;;2.08;100.00
70971;BME280;58632;51.718;19.446;2023-11-21T10:01:38;99138.80;;;2.07;100.00
70971;BME280;58632;51.718;19.446;2023-11-21T10:04:06;99139.85;;;2.10;100.00
70971;BME280;58632;51.718;19.446;2023-11-21T10:06:39;99141.33;;;2.09;100.00
70971;BME280;58632;51.718;19.446;2023-11-21T10:09:05;99142.02;;;2.10;100.00
70971;BME280;58632;51.718;19.446;2023-11-21T10:11:39;99135.25;;;2.11;100.00
70971;BME280;58632;51.718;19.446;2023-11-21T10:14:06;99139.88;;;2.15;100.00
70971;BME280;58632;51.718;19.446;2023-11-21T10:16:33;99144.38;;;2.18;100.00
70971;BME280;58632;51.718;19.446;2023-11-21T10:18:58;99146.71;;;2.17;100.00
70971;BME280;58632;51.718;19.446;2023-11-21T10:21:24;99143.20;;;2.17;100.00
70971;BME280;58632;51.718;19.446;2023-11-21T10:23:51;99143.82;;;2.21;100.00
70971;BME280;58632;51.718;19.446;2023-11-21T10:26:18;99142.23;;;2.22;100.00
70971;BME280;58632;51.718;19.446;2023-11-21T10:28:58;99142.84;;;2.14;100.00
70971;BME280;58632;51.718;19.446;2023-11-21T10:31:26;99142.09;;;2.08;100.00
70971;BME280;58632;51.718;19.446;2023-11-21T10:33:52;99148.73;;;2.08;100.00
70971;BME280;58632;51.718;19.446;2023-11-21T10:36:27;99152.45;;;2.08;100.00
70971;BME280;58632;51.718;19.446;2023-11-21T10:38:53;99151.85;;;2.09;100.00
70971;BME280;58632;51.718;19.446;2023-11-21T10:41:21;99155.83;;;2.10;100.00
70971;BME280;58632;51.718;19.446;2023-11-21T10:43:46;99156.58;;;2.13;100.00
70971;BME280;58632;51.718;19.446;2023-11-21T10:46:13;99161.11;;;2.15;100.00
70971;BME280;58632;51.718;19.446;2023-11-21T10:48:40;99165.48;;;2.17;100.00
70971;BME280;58632;51.718;19.446;2023-11-21T10:51:07;99167.16;;;2.13;100.00
70971;BME280;58632;51.718;19.446;2023-11-21T10:53:33;99171.70;;;2.14;100.00
70971;BME280;58632;51.718;19.446;2023-11-21T10:56:08;99175.17;;;2.11;100.00
70971;BME280;58632;51.718;19.446;2023-11-21T10:58:43;99173.47;;;2.08;100.00
70971;BME280;58632;51.718;19.446;2023-11-21T11:01:08;99178.13;;;2.05;100.00
70971;BME280;58632;51.718;19.446;2023-11-21T11:03:37;99180.91;;;2.09;100.00
70971;BME280;58632;51.718;19.446;2023-11-21T11:06:04;99184.23;;;2.13;100.00
70971;BME280;58632;51.718;19.446;2023-11-21T11:08:30;99183.17;;;2.18;100.00
70971;BME280;58632;51.718;19.446;2023-11-21T11:10:57;99182.42;;;2.17;100.00
70971;BME280;58632;51.718;19.446;2023-11-21T11:13:23;99185.72;;;2.09;100.00
70971;BME280;58632;51.718;19.446;2023-11-21T11:15:49;99189.32;;;2.04;100.00
70971;BME280;58632;51.718;19.446;2023-11-21T11:18:15;99197.17;;;1.99;100.00
70971;BME280;58632;51.718;19.446;2023-11-21T11:20:42;99194.41;;;1.93;100.00
70971;BME280;58632;51.718;19.446;2023-11-21T11:23:13;99192.44;;;1.87;100.00
70971;BME280;58632;51.718;19.446;2023-11-21T11:26:06;99192.76;;;1.79;100.00
70971;BME280;58632;51.718;19.446;2023-11-21T11:31:08;99192.42;;;1.71;100.00
70971;BME280;58632;51.718;19.446;2023-11-21T11:33:45;99194.73;;;1.73;100.00
70971;BME280;58632;51.718;19.446;2023-11-21T11:36:27;99195.00;;;1.74;100.00
70971;BME280;58632;51.718;19.446;2023-11-21T11:38:55;99196.94;;;1.74;100.00
70971;BME280;58632;51.718;19.446;2023-11-21T11:41:29;99197.02;;;1.73;100.00
70971;BME280;58632;51.718;19.446;2023-11-21T11:43:55;99198.40;;;1.75;100.00
70971;BME280;58632;51.718;19.446;2023-11-21T11:46:26;99200.91;;;1.79;100.00
70971;BME280;58632;51.718;19.446;2023-11-21T11:49:06;99202.48;;;1.80;100.00
70971;BME280;58632;51.718;19.446;2023-11-21T11:51:33;99198.30;;;1.82;100.00
70971;BME280;58632;51.718;19.446;2023-11-21T11:54:01;99195.48;;;1.84;100.00
70971;BME280;58632;51.718;19.446;2023-11-21T11:56:31;99200.94;;;1.85;100.00
70971;BME280;58632;51.718;19.446;2023-11-21T11:59:00;99207.16;;;1.83;100.00
70971;BME280;58632;51.718;19.446;2023-11-21T12:01:27;99211.11;;;1.81;100.00
70971;BME280;58632;51.718;19.446;2023-11-21T12:06:50;99223.70;;;1.77;100.00
70971;BME280;58632;51.718;19.446;2023-11-21T12:09:19;99228.65;;;1.74;100.00
70971;BME280;58632;51.718;19.446;2023-11-21T12:11:47;99228.98;;;1.70;100.00
70971;BME280;58632;51.718;19.446;2023-11-21T12:14:13;99222.14;;;1.67;100.00
70971;BME280;58632;51.718;19.446;2023-11-21T12:16:39;99223.99;;;1.61;100.00
70971;BME280;58632;51.718;19.446;2023-11-21T12:19:05;99230.28;;;1.55;100.00
70971;BME280;58632;51.718;19.446;2023-11-21T12:21:33;99227.11;;;1.51;100.00
70971;BME280;58632;51.718;19.446;2023-11-21T12:23:59;99216.10;;;1.47;100.00
70971;BME280;58632;51.718;19.446;2023-11-21T12:26:24;99223.09;;;1.47;100.00
70971;BME280;58632;51.718;19.446;2023-11-21T12:28:53;99237.56;;;1.42;100.00
70971;BME280;58632;51.718;19.446;2023-11-21T12:31:22;99236.35;;;1.34;100.00
70971;BME280;58632;51.718;19.446;2023-11-21T12:33:47;99237.19;;;1.21;100.00
70971;BME280;58632;51.718;19.446;2023-11-21T12:36:13;99237.86;;;1.10;100.00
70971;BME280;58632;51.718;19.446;2023-11-21T12:38:39;99239.76;;;1.02;100.00
70971;BME280;58632;51.718;19.446;2023-11-21T12:41:05;99237.11;;;1.03;100.00
70971;BME280;58632;51.718;19.446;2023-11-21T12:43:31;99235.92;;;1.05;100.00
70971;BME280;58632;51.718;19.446;2023-11-21T12:46:04;99232.52;;;1.07;100.00
70971;BME280;58632;51.718;19.446;2023-11-21T12:48:31;99233.38;;;1.10;100.00
70971;BME280;58632;51.718;19.446;2023-11-21T12:50:56;99233.80;;;1.12;100.00
70971;BME280;58632;51.718;19.446;2023-11-21T12:53:25;99240.77;;;1.09;100.00
70971;BME280;58632;51.718;19.446;2023-11-21T12:55:51;99244.86;;;1.08;100.00